sensor_id;sensor_type;location;lat;lon;timestamp;pressure;altitude;pressure_sealevel;temperature;humidity
23172;BME280;11754;42.664;23.594;2023-01-29T00:01:51;95524.22;;;1.48;76.80
23172;BME280;11754;42.664;23.594;2023-01-29T00:04:17;95526.94;;;1.46;76.73
23172;BME280;11754;42.664;23.594;2023-01-29T00:06:42;95530.09;;;1.38;76.93
23172;BME280;11754;42.664;23.594;2023-01-29T00:09:08;95531.09;;;1.49;77.14
23172;BME280;11754;42.664;23.594;2023-01-29T00:11:34;95539.44;;;1.41;76.83
23172;BME280;11754;42.664;23.594;2023-01-29T00:13:59;95538.59;;;1.40;76.77
23172;BME280;11754;42.664;23.594;2023-01-29T00:16:27;95539.72;;;1.49;76.91
23172;BME280;11754;42.664;23.594;2023-01-29T00:18:52;95543.75;;;1.53;76.94
23172;BME280;11754;42.664;23.594;2023-01-29T00:21:19;95541.78;;;1.57;76.78
23172;BME280;11754;42.664;23.594;2023-01-29T00:23:49;95548.53;;;1.59;76.83
23172;BME280;11754;42.664;23.594;2023-01-29T00:26:15;95548.69;;;1.45;76.46
23172;BME280;11754;42.664;23.594;2023-01-29T00:28:41;95535.47;;;1.48;76.77
23172;BME280;11754;42.664;23.594;2023-01-29T00:31:15;95552.50;;;1.52;76.25
23172;BME280;11754;42.664;23.594;2023-01-29T00:33:40;95554.09;;;1.42;76.71
23172;BME280;11754;42.664;23.594;2023-01-29T00:36:08;95554.53;;;1.36;76.74
23172;BME280;11754;42.664;23.594;2023-01-29T00:38:34;95555.69;;;1.32;76.86
23172;BME280;11754;42.664;23.594;2023-01-29T00:41:14;95552.88;;;1.35;77.07
23172;BME280;11754;42.664;23.594;2023-01-29T00:43:59;95551.50;;;1.42;77.02
23172;BME280;11754;42.664;23.594;2023-01-29T00:46:44;95548.16;;;1.40;77.00
23172;BME280;11754;42.664;23.594;2023-01-29T00:49:09;95555.03;;;1.41;76.95
23172;BME280;11754;42.664;23.594;2023-01-29T00:51:36;95542.06;;;1.41;77.36
23172;BME280;11754;42.664;23.594;2023-01-29T00:54:02;95541.09;;;1.42;76.97
23172;BME280;11754;42.664;23.594;2023-01-29T00:56:29;95549.31;;;1.36;77.10
23172;BME280;11754;42.664;23.594;2023-01-29T00:58:54;95545.91;;;1.35;77.35
23172;BME280;11754;42.664;23.594;2023-01-29T01:01:20;95545.28;;;1.32;77.51
23172;BME280;11754;42.664;23.594;2023-01-29T01:04:08;95547.88;;;1.32;77.95
23172;BME280;11754;42.664;23.594;2023-01-29T01:06:36;95547.66;;;1.35;77.86
23172;BME280;11754;42.664;23.594;2023-01-29T01:09:03;95544.75;;;1.39;78.14
23172;BME280;11754;42.664;23.594;2023-01-29T01:11:46;95555.03;;;1.41;78.40
23172;BME280;11754;42.664;23.594;2023-01-29T01:14:12;95546.63;;;1.37;78.23
23172;BME280;11754;42.664;23.594;2023-01-29T01:16:37;95538.53;;;1.29;79.06
23172;BME280;11754;42.664;23.594;2023-01-29T01:19:03;95552.97;;;1.33;79.31
23172;BME280;11754;42.664;23.594;2023-01-29T01:21:29;95552.34;;;1.30;78.94
23172;BME280;11754;42.664;23.594;2023-01-29T01:23:55;95544.56;;;1.30;79.20
23172;BME280;11754;42.664;23.594;2023-01-29T01:26:20;95545.00;;;1.24;79.11
23172;BME280;11754;42.664;23.594;2023-01-29T01:28:47;95552.97;;;1.33;79.39
23172;BME280;11754;42.664;23.594;2023-01-29T01:31:13;95531.13;;;1.36;79.19
23172;BME280;11754;42.664;23.594;2023-01-29T01:33:40;95544.84;;;1.38;79.41
23172;BME280;11754;42.664;23.594;2023-01-29T01:36:09;95529.28;;;1.38;80.04
23172;BME280;11754;42.664;23.594;2023-01-29T01:38:37;95545.88;;;1.48;80.10
23172;BME280;11754;42.664;23.594;2023-01-29T01:41:14;95538.38;;;1.43;79.44
23172;BME280;11754;42.664;23.594;2023-01-29T01:46:22;95542.19;;;1.51;79.23
23172;BME280;11754;42.664;23.594;2023-01-29T01:49:03;95542.94;;;1.53;79.03
23172;BME280;11754;42.664;23.594;2023-01-29T01:51:31;95539.31;;;1.55;78.75
23172;BME280;11754;42.664;23.594;2023-01-29T01:54:27;95545.19;;;1.57;78.94
23172;BME280;11754;42.664;23.594;2023-01-29T01:56:59;95550.19;;;1.60;78.75
23172;BME280;11754;42.664;23.594;2023-01-29T01:59:34;95556.09;;;1.38;79.58
23172;BME280;11754;42.664;23.594;2023-01-29T02:02:01;95552.13;;;1.33;80.09
23172;BME280;11754;42.664;23.594;2023-01-29T02:04:47;95549.03;;;1.28;80.72
23172;BME280;11754;42.664;23.594;2023-01-29T02:07:32;95553.00;;;1.20;80.75
23172;BME280;11754;42.664;23.594;2023-01-29T02:10:17;95555.53;;;1.09;81.31
23172;BME280;11754;42.664;23.594;2023-01-29T02:12:44;95554.88;;;1.18;82.12
23172;BME280;11754;42.664;23.594;2023-01-29T02:15:11;95547.41;;;1.14;82.12
23172;BME280;11754;42.664;23.594;2023-01-29T02:17:36;95547.81;;;1.20;82.43
23172;BME280;11754;42.664;23.594;2023-01-29T02:25:46;95562.75;;;1.30;82.75
23172;BME280;11754;42.664;23.594;2023-01-29T02:28:40;95552.59;;;1.27;83.16
23172;BME280;11754;42.664;23.594;2023-01-29T02:31:43;95554.31;;;1.39;83.19
23172;BME280;11754;42.664;23.594;2023-01-29T02:36:59;95566.94;;;1.19;83.39
23172;BME280;11754;42.664;23.594;2023-01-29T02:42:47;95561.66;;;1.08;83.60
23172;BME280;11754;42.664;23.594;2023-01-29T02:45:23;95567.78;;;1.07;83.79
23172;BME280;11754;42.664;23.594;2023-01-29T02:48:00;95574.41;;;1.11;83.95
23172;BME280;11754;42.664;23.594;2023-01-29T02:50:42;95580.69;;;1.09;83.96
23172;BME280;11754;42.664;23.594;2023-01-29T02:53:15;95576.72;;;1.03;84.13
23172;BME280;11754;42.664;23.594;2023-01-29T02:55:46;95566.03;;;0.95;84.35
23172;BME280;11754;42.664;23.594;2023-01-29T02:58:35;95572.38;;;0.91;84.08
23172;BME280;11754;42.664;23.594;2023-01-29T03:01:08;95576.50;;;0.93;84.54
23172;BME280;11754;42.664;23.594;2023-01-29T03:03:46;95585.03;;;0.95;84.53
23172;BME280;11754;42.664;23.594;2023-01-29T03:06:17;95579.84;;;0.95;84.17
23172;BME280;11754;42.664;23.594;2023-01-29T03:08:54;95575.88;;;0.90;84.03
23172;BME280;11754;42.664;23.594;2023-01-29T03:11:22;95577.56;;;0.91;84.22
23172;BME280;11754;42.664;23.594;2023-01-29T03:14:03;95580.16;;;0.91;84.21
23172;BME280;11754;42.664;23.594;2023-01-29T03:16:39;95583.19;;;0.85;84.12
23172;BME280;11754;42.664;23.594;2023-01-29T03:19:15;95571.56;;;0.90;84.55
23172;BME280;11754;42.664;23.594;2023-01-29T03:21:47;95594.59;;;0.95;84.90
23172;BME280;11754;42.664;23.594;2023-01-29T03:24:19;95587.84;;;0.92;84.86
23172;BME280;11754;42.664;23.594;2023-01-29T03:27:07;95590.66;;;1.02;84.67
23172;BME280;11754;42.664;23.594;2023-01-29T03:29:53;95589.63;;;1.05;84.37
23172;BME280;11754;42.664;23.594;2023-01-29T03:32:38;95596.16;;;0.98;83.63
23172;BME280;11754;42.664;23.594;2023-01-29T03:35:06;95587.97;;;0.91;84.06
23172;BME280;11754;42.664;23.594;2023-01-29T03:40:01;95594.81;;;0.92;84.74
23172;BME280;11754;42.664;23.594;2023-01-29T03:45:13;95592.81;;;0.83;85.14
23172;BME280;11754;42.664;23.594;2023-01-29T03:50:41;95586.72;;;0.84;85.74
23172;BME280;11754;42.664;23.594;2023-01-29T03:55:52;95590.84;;;0.86;86.17
23172;BME280;11754;42.664;23.594;2023-01-29T03:58:42;95586.72;;;0.84;86.37
23172;BME280;11754;42.664;23.594;2023-01-29T04:01:18;95584.41;;;0.79;86.17
23172;BME280;11754;42.664;23.594;2023-01-29T04:04:15;95584.41;;;0.66;86.27
23172;BME280;11754;42.664;23.594;2023-01-29T04:06:44;95584.41;;;0.66;87.01
23172;BME280;11754;42.664;23.594;2023-01-29T04:11:45;95566.44;;;0.63;86.60
23172;BME280;11754;42.664;23.594;2023-01-29T04:14:12;95594.72;;;0.81;86.66
23172;BME280;11754;42.664;23.594;2023-01-29T04:16:41;95590.88;;;0.74;86.32
23172;BME280;11754;42.664;23.594;2023-01-29T04:19:08;95591.06;;;0.70;86.43
23172;BME280;11754;42.664;23.594;2023-01-29T04:21:34;95596.88;;;0.74;86.26
23172;BME280;11754;42.664;23.594;2023-01-29T04:24:03;95594.50;;;0.84;86.45
23172;BME280;11754;42.664;23.594;2023-01-29T04:26:49;95590.47;;;0.80;86.05
23172;BME280;11754;42.664;23.594;2023-01-29T04:32:14;95593.78;;;0.82;86.92
23172;BME280;11754;42.664;23.594;2023-01-29T04:37:22;95600.63;;;0.83;86.32
23172;BME280;11754;42.664;23.594;2023-01-29T04:39:55;95600.81;;;0.92;86.15
23172;BME280;11754;42.664;23.594;2023-01-29T04:42:36;95601.44;;;0.96;85.89
23172;BME280;11754;42.664;23.594;2023-01-29T04:50:15;95605.00;;;0.95;85.16
23172;BME280;11754;42.664;23.594;2023-01-29T04:52:59;95607.28;;;0.87;84.94
23172;BME280;11754;42.664;23.594;2023-01-29T04:55:52;95605.09;;;0.93;85.25
23172;BME280;11754;42.664;23.594;2023-01-29T05:00:58;95606.03;;;0.92;85.49
23172;BME280;11754;42.664;23.594;2023-01-29T05:03:26;95602.47;;;0.93;85.34
23172;BME280;11754;42.664;23.594;2023-01-29T05:05:54;95610.59;;;1.02;85.57
23172;BME280;11754;42.664;23.594;2023-01-29T05:08:22;95610.41;;;1.05;85.49
23172;BME280;11754;42.664;23.594;2023-01-29T05:10:50;95615.56;;;1.17;85.54
23172;BME280;11754;42.664;23.594;2023-01-29T05:13:18;95615.16;;;1.11;84.80
23172;BME280;11754;42.664;23.594;2023-01-29T05:16:12;95613.50;;;1.10;84.95
23172;BME280;11754;42.664;23.594;2023-01-29T05:18:38;95620.56;;;1.08;85.75
23172;BME280;11754;42.664;23.594;2023-01-29T05:21:06;95621.28;;;1.10;85.60
23172;BME280;11754;42.664;23.594;2023-01-29T05:23:33;95629.72;;;1.13;85.70
23172;BME280;11754;42.664;23.594;2023-01-29T05:25:58;95621.28;;;1.10;85.38
23172;BME280;11754;42.664;23.594;2023-01-29T05:28:24;95627.00;;;1.15;85.10
23172;BME280;11754;42.664;23.594;2023-01-29T05:30:52;95630.94;;;1.20;84.90
23172;BME280;11754;42.664;23.594;2023-01-29T05:35:44;95632.81;;;0.93;84.38
23172;BME280;11754;42.664;23.594;2023-01-29T05:38:10;95633.25;;;1.00;85.21
23172;BME280;11754;42.664;23.594;2023-01-29T05:40:37;95632.22;;;1.02;85.30
23172;BME280;11754;42.664;23.594;2023-01-29T05:43:02;95639.88;;;1.04;84.96
23172;BME280;11754;42.664;23.594;2023-01-29T05:45:28;95631.38;;;1.02;84.64
23172;BME280;11754;42.664;23.594;2023-01-29T05:47:58;95630.97;;;0.95;84.44
23172;BME280;11754;42.664;23.594;2023-01-29T05:50:24;95643.00;;;0.96;84.44
23172;BME280;11754;42.664;23.594;2023-01-29T05:52:55;95641.78;;;1.02;84.32
23172;BME280;11754;42.664;23.594;2023-01-29T05:55:21;95633.44;;;0.96;84.09
23172;BME280;11754;42.664;23.594;2023-01-29T05:57:46;95647.59;;;1.05;83.53
23172;BME280;11754;42.664;23.594;2023-01-29T06:00:12;95643.03;;;1.09;83.56
23172;BME280;11754;42.664;23.594;2023-01-29T06:02:38;95643.22;;;1.06;83.40
23172;BME280;11754;42.664;23.594;2023-01-29T06:05:03;95644.78;;;1.08;83.55
23172;BME280;11754;42.664;23.594;2023-01-29T06:07:29;95641.56;;;1.05;83.21
23172;BME280;11754;42.664;23.594;2023-01-29T06:09:54;95652.78;;;1.05;82.91
23172;BME280;11754;42.664;23.594;2023-01-29T06:12:20;95651.53;;;1.11;82.93
23172;BME280;11754;42.664;23.594;2023-01-29T06:14:45;95653.69;;;1.04;82.66
23172;BME280;11754;42.664;23.594;2023-01-29T06:17:10;95660.78;;;1.02;82.71
23172;BME280;11754;42.664;23.594;2023-01-29T06:19:36;95661.63;;;1.03;82.93
23172;BME280;11754;42.664;23.594;2023-01-29T06:22:01;95654.03;;;1.00;82.74
23172;BME280;11754;42.664;23.594;2023-01-29T06:24:26;95676.88;;;1.07;82.62
23172;BME280;11754;42.664;23.594;2023-01-29T06:26:52;95672.94;;;1.02;82.43
23172;BME280;11754;42.664;23.594;2023-01-29T06:29:17;95680.63;;;1.03;82.56
23172;BME280;11754;42.664;23.594;2023-01-29T06:31:43;95674.81;;;1.00;82.67
23172;BME280;11754;42.664;23.594;2023-01-29T06:34:08;95689.16;;;1.05;83.11
23172;BME280;11754;42.664;23.594;2023-01-29T06:36:34;95679.16;;;0.99;82.67
23172;BME280;11754;42.664;23.594;2023-01-29T06:38:59;95689.34;;;1.02;83.07
23172;BME280;11754;42.664;23.594;2023-01-29T06:41:24;95694.16;;;1.08;83.64
23172;BME280;11754;42.664;23.594;2023-01-29T06:43:50;95697.22;;;1.01;83.50
23172;BME280;11754;42.664;23.594;2023-01-29T06:46:16;95695.69;;;0.98;83.97
23172;BME280;11754;42.664;23.594;2023-01-29T06:48:42;95699.19;;;0.97;83.96
23172;BME280;11754;42.664;23.594;2023-01-29T06:51:08;95702.03;;;0.94;83.87
23172;BME280;11754;42.664;23.594;2023-01-29T06:53:35;95706.38;;;0.81;84.44
23172;BME280;11754;42.664;23.594;2023-01-29T06:56:01;95699.28;;;0.83;84.63
23172;BME280;11754;42.664;23.594;2023-01-29T06:58:26;95710.72;;;0.93;84.50
23172;BME280;11754;42.664;23.594;2023-01-29T07:00:52;95710.53;;;0.96;84.42
23172;BME280;11754;42.664;23.594;2023-01-29T07:03:17;95705.53;;;0.93;84.62
23172;BME280;11754;42.664;23.594;2023-01-29T07:05:49;95707.34;;;1.05;85.16
23172;BME280;11754;42.664;23.594;2023-01-29T07:08:14;95705.34;;;1.22;84.68
23172;BME280;11754;42.664;23.594;2023-01-29T07:10:39;95704.41;;;1.23;83.89
23172;BME280;11754;42.664;23.594;2023-01-29T07:13:05;95713.38;;;1.31;83.79
23172;BME280;11754;42.664;23.594;2023-01-29T07:15:30;95698.38;;;1.48;83.51
23172;BME280;11754;42.664;23.594;2023-01-29T07:18:00;95713.97;;;1.60;82.57
23172;BME280;11754;42.664;23.594;2023-01-29T07:20:27;95722.41;;;1.64;81.94
23172;BME280;11754;42.664;23.594;2023-01-29T07:22:55;95722.19;;;1.54;81.69
23172;BME280;11754;42.664;23.594;2023-01-29T07:25:21;95734.47;;;1.52;81.48
23172;BME280;11754;42.664;23.594;2023-01-29T07:27:46;95724.88;;;1.65;81.63
23172;BME280;11754;42.664;23.594;2023-01-29T07:30:13;95721.16;;;1.70;81.26
23172;BME280;11754;42.664;23.594;2023-01-29T07:32:38;95719.69;;;1.65;80.54
23172;BME280;11754;42.664;23.594;2023-01-29T07:35:04;95726.97;;;1.73;80.22
23172;BME280;11754;42.664;23.594;2023-01-29T07:37:29;95730.03;;;1.91;80.02
23172;BME280;11754;42.664;23.594;2023-01-29T07:39:55;95724.63;;;1.94;79.47
23172;BME280;11754;42.664;23.594;2023-01-29T07:42:20;95725.66;;;2.04;79.20
23172;BME280;11754;42.664;23.594;2023-01-29T07:44:46;95733.38;;;2.06;78.62
23172;BME280;11754;42.664;23.594;2023-01-29T07:47:11;95737.16;;;2.26;78.03
23172;BME280;11754;42.664;23.594;2023-01-29T07:49:36;95741.41;;;2.27;77.54
23172;BME280;11754;42.664;23.594;2023-01-29T07:52:02;95736.25;;;2.38;77.53
23172;BME280;11754;42.664;23.594;2023-01-29T07:54:27;95741.31;;;2.52;77.21
23172;BME280;11754;42.664;23.594;2023-01-29T07:56:52;95750.91;;;2.52;76.30
23172;BME280;11754;42.664;23.594;2023-01-29T07:59:18;95736.97;;;2.53;75.50
23172;BME280;11754;42.664;23.594;2023-01-29T08:01:43;95742.03;;;2.78;75.42
23172;BME280;11754;42.664;23.594;2023-01-29T08:04:09;95756.47;;;3.06;75.10
23172;BME280;11754;42.664;23.594;2023-01-29T08:06:34;95749.91;;;3.25;74.67
23172;BME280;11754;42.664;23.594;2023-01-29T08:08:59;95747.56;;;3.33;72.73
23172;BME280;11754;42.664;23.594;2023-01-29T08:11:25;95750.13;;;3.22;72.26
23172;BME280;11754;42.664;23.594;2023-01-29T08:13:50;95752.59;;;3.23;72.05
23172;BME280;11754;42.664;23.594;2023-01-29T08:16:16;95752.03;;;3.31;72.04
23172;BME280;11754;42.664;23.594;2023-01-29T08:18:41;95727.66;;;3.43;72.01
23172;BME280;11754;42.664;23.594;2023-01-29T08:21:10;95758.88;;;3.90;71.36
23172;BME280;11754;42.664;23.594;2023-01-29T08:23:35;95755.91;;;4.05;70.19
23172;BME280;11754;42.664;23.594;2023-01-29T08:26:02;95759.94;;;4.21;69.47
23172;BME280;11754;42.664;23.594;2023-01-29T08:28:27;95754.84;;;4.19;69.19
23172;BME280;11754;42.664;23.594;2023-01-29T08:30:53;95761.06;;;4.50;68.53
23172;BME280;11754;42.664;23.594;2023-01-29T08:33:18;95754.44;;;4.46;67.43
23172;BME280;11754;42.664;23.594;2023-01-29T08:35:50;95755.75;;;4.41;66.94
23172;BME280;11754;42.664;23.594;2023-01-29T08:38:16;95772.69;;;4.57;67.09
23172;BME280;11754;42.664;23.594;2023-01-29T08:40:42;95761.22;;;4.81;67.02
23172;BME280;11754;42.664;23.594;2023-01-29T08:43:09;95764.53;;;4.94;66.23
23172;BME280;11754;42.664;23.594;2023-01-29T08:45:38;95772.06;;;5.09;65.57
23172;BME280;11754;42.664;23.594;2023-01-29T08:48:04;95766.19;;;4.95;64.61
23172;BME280;11754;42.664;23.594;2023-01-29T08:50:30;95758.63;;;4.81;64.69
23172;BME280;11754;42.664;23.594;2023-01-29T08:52:58;95783.59;;;4.74;64.62
23172;BME280;11754;42.664;23.594;2023-01-29T08:55:24;95774.41;;;4.47;64.84
23172;BME280;11754;42.664;23.594;2023-01-29T08:57:49;95772.72;;;4.35;65.47
23172;BME280;11754;42.664;23.594;2023-01-29T09:00:16;95786.75;;;4.34;65.69
23172;BME280;11754;42.664;23.594;2023-01-29T09:02:41;95774.53;;;4.34;66.13
23172;BME280;11754;42.664;23.594;2023-01-29T09:05:07;95783.13;;;4.57;65.40
23172;BME280;11754;42.664;23.594;2023-01-29T09:07:33;95777.25;;;4.44;65.48
23172;BME280;11754;42.664;23.594;2023-01-29T09:09:58;95784.22;;;4.55;66.37
23172;BME280;11754;42.664;23.594;2023-01-29T09:12:24;95780.78;;;4.43;65.61
23172;BME280;11754;42.664;23.594;2023-01-29T09:14:50;95778.75;;;4.58;65.94
23172;BME280;11754;42.664;23.594;2023-01-29T09:17:15;95782.09;;;4.49;65.21
23172;BME280;11754;42.664;23.594;2023-01-29T09:19:40;95788.28;;;4.48;64.87
23172;BME280;11754;42.664;23.594;2023-01-29T09:22:06;95775.59;;;4.21;65.55
23172;BME280;11754;42.664;23.594;2023-01-29T09:24:31;95784.38;;;4.20;65.91
23172;BME280;11754;42.664;23.594;2023-01-29T09:26:57;95778.94;;;4.12;66.20
23172;BME280;11754;42.664;23.594;2023-01-29T09:29:22;95774.88;;;4.07;66.18
23172;BME280;11754;42.664;23.594;2023-01-29T09:31:48;95772.72;;;4.35;66.51
23172;BME280;11754;42.664;23.594;2023-01-29T09:34:13;95773.66;;;4.45;65.87
23172;BME280;11754;42.664;23.594;2023-01-29T09:36:39;95769.28;;;4.46;64.86
23172;BME280;11754;42.664;23.594;2023-01-29T09:39:04;95765.56;;;4.60;64.65
23172;BME280;11754;42.664;23.594;2023-01-29T09:47:12;95769.41;;;4.88;64.63
23172;BME280;11754;42.664;23.594;2023-01-29T09:49:42;95764.78;;;4.91;63.80
23172;BME280;11754;42.664;23.594;2023-01-29T09:52:18;95763.16;;;4.68;63.96
23172;BME280;11754;42.664;23.594;2023-01-29T09:57:25;95763.03;;;4.26;65.76
23172;BME280;11754;42.664;23.594;2023-01-29T09:59:53;95771.56;;;4.28;65.09
23172;BME280;11754;42.664;23.594;2023-01-29T10:02:28;95763.94;;;4.36;64.98
23172;BME280;11754;42.664;23.594;2023-01-29T10:07:54;95763.00;;;4.03;65.85
23172;BME280;11754;42.664;23.594;2023-01-29T10:22:42;95730.41;;;3.98;65.99
23172;BME280;11754;42.664;23.594;2023-01-29T10:25:15;95745.00;;;4.00;66.25
23172;BME280;11754;42.664;23.594;2023-01-29T10:27:47;95744.28;;;4.09;66.44
23172;BME280;11754;42.664;23.594;2023-01-29T10:30:59;95735.72;;;3.96;66.16
23172;BME280;11754;42.664;23.594;2023-01-29T10:33:42;95736.00;;;4.04;66.23
23172;BME280;11754;42.664;23.594;2023-01-29T10:36:14;95737.16;;;4.23;65.74
23172;BME280;11754;42.664;23.594;2023-01-29T10:38:45;95739.50;;;4.37;65.42
23172;BME280;11754;42.664;23.594;2023-01-29T10:41:23;95736.16;;;4.35;64.84
23172;BME280;11754;42.664;23.594;2023-01-29T10:47:12;95730.25;;;4.22;65.22
23172;BME280;11754;42.664;23.594;2023-01-29T11:00:21;95734.09;;;3.95;66.33
23172;BME280;11754;42.664;23.594;2023-01-29T11:02:48;95732.19;;;3.75;66.52
23172;BME280;11754;42.664;23.594;2023-01-29T11:08:15;95731.47;;;3.61;67.78
23172;BME280;11754;42.664;23.594;2023-01-29T11:13:26;95732.53;;;3.59;68.18
23172;BME280;11754;42.664;23.594;2023-01-29T11:15:53;95722.22;;;3.80;68.13
23172;BME280;11754;42.664;23.594;2023-01-29T11:18:19;95720.81;;;3.87;67.95
23172;BME280;11754;42.664;23.594;2023-01-29T11:20:45;95711.44;;;3.73;67.07
23172;BME280;11754;42.664;23.594;2023-01-29T11:23:31;95713.81;;;3.76;67.50
23172;BME280;11754;42.664;23.594;2023-01-29T11:25:58;95713.81;;;3.76;67.25
23172;BME280;11754;42.664;23.594;2023-01-29T11:28:44;95717.47;;;3.63;67.83
23172;BME280;11754;42.664;23.594;2023-01-29T11:31:27;95711.31;;;3.75;67.78
23172;BME280;11754;42.664;23.594;2023-01-29T11:34:12;95710.13;;;3.90;66.84
23172;BME280;11754;42.664;23.594;2023-01-29T11:36:40;95698.50;;;3.94;66.98
23172;BME280;11754;42.664;23.594;2023-01-29T11:39:13;95700.66;;;4.00;66.07
23172;BME280;11754;42.664;23.594;2023-01-29T11:41:47;95689.63;;;3.97;66.38
23172;BME280;11754;42.664;23.594;2023-01-29T11:44:26;95691.84;;;4.01;66.57
23172;BME280;11754;42.664;23.594;2023-01-29T11:46:52;95685.81;;;4.01;66.84
23172;BME280;11754;42.664;23.594;2023-01-29T11:49:22;95679.19;;;4.29;66.44
23172;BME280;11754;42.664;23.594;2023-01-29T11:51:53;95674.94;;;4.28;65.79
23172;BME280;11754;42.664;23.594;2023-01-29T11:54:24;95677.50;;;4.39;65.53
23172;BME280;11754;42.664;23.594;2023-01-29T11:56:52;95667.41;;;4.46;65.87
23172;BME280;11754;42.664;23.594;2023-01-29T12:04:41;95679.19;;;4.29;65.67
23172;BME280;11754;42.664;23.594;2023-01-29T12:07:12;95679.22;;;4.18;65.77
23172;BME280;11754;42.664;23.594;2023-01-29T12:09:39;95667.59;;;4.22;66.18
23172;BME280;11754;42.664;23.594;2023-01-29T12:15:01;95662.84;;;4.59;65.62
23172;BME280;11754;42.664;23.594;2023-01-29T12:17:28;95667.78;;;4.73;64.11
23172;BME280;11754;42.664;23.594;2023-01-29T12:19:59;95655.81;;;4.92;64.05
23172;BME280;11754;42.664;23.594;2023-01-29T12:22:56;95648.16;;;4.79;63.47
23172;BME280;11754;42.664;23.594;2023-01-29T12:28:15;95667.59;;;5.28;63.11
23172;BME280;11754;42.664;23.594;2023-01-29T12:30:54;95662.06;;;5.21;62.82
23172;BME280;11754;42.664;23.594;2023-01-29T12:33:32;95647.81;;;5.35;62.54
23172;BME280;11754;42.664;23.594;2023-01-29T12:36:28;95667.75;;;5.57;61.50
23172;BME280;11754;42.664;23.594;2023-01-29T12:38:56;95649.28;;;5.59;61.08
23172;BME280;11754;42.664;23.594;2023-01-29T12:41:31;95667.44;;;5.50;61.54
23172;BME280;11754;42.664;23.594;2023-01-29T12:44:04;95661.19;;;5.63;61.62
23172;BME280;11754;42.664;23.594;2023-01-29T12:46:36;95663.09;;;5.61;60.25
23172;BME280;11754;42.664;23.594;2023-01-29T12:49:10;95656.91;;;5.41;61.12
23172;BME280;11754;42.664;23.594;2023-01-29T12:51:41;95665.09;;;5.88;61.21
23172;BME280;11754;42.664;23.594;2023-01-29T12:54:17;95646.22;;;6.34;58.93
23172;BME280;11754;42.664;23.594;2023-01-29T12:56:50;95661.72;;;6.76;57.51
23172;BME280;11754;42.664;23.594;2023-01-29T12:59:19;95662.00;;;6.54;57.54
23172;BME280;11754;42.664;23.594;2023-01-29T13:01:52;95665.69;;;6.41;58.00
23172;BME280;11754;42.664;23.594;2023-01-29T13:04:40;95673.50;;;6.22;58.68
23172;BME280;11754;42.664;23.594;2023-01-29T13:07:23;95668.19;;;5.93;59.81
23172;BME280;11754;42.664;23.594;2023-01-29T13:09:56;95663.59;;;5.54;60.55
23172;BME280;11754;42.664;23.594;2023-01-29T13:12:26;95661.16;;;5.32;61.32
23172;BME280;11754;42.664;23.594;2023-01-29T13:17:46;95661.28;;;5.30;61.77
23172;BME280;11754;42.664;23.594;2023-01-29T13:20:22;95666.25;;;5.64;61.64
23172;BME280;11754;42.664;23.594;2023-01-29T13:22:49;95677.09;;;5.90;60.01
23172;BME280;11754;42.664;23.594;2023-01-29T13:25:18;95663.34;;;6.77;58.09
23172;BME280;11754;42.664;23.594;2023-01-29T13:27:44;95659.47;;;7.20;55.37
23172;BME280;11754;42.664;23.594;2023-01-29T13:32:51;95665.47;;;7.50;54.07
23172;BME280;11754;42.664;23.594;2023-01-29T13:35:20;95668.06;;;6.93;54.70
23172;BME280;11754;42.664;23.594;2023-01-29T13:37:49;95668.88;;;6.35;56.46
23172;BME280;11754;42.664;23.594;2023-01-29T13:40:34;95674.75;;;5.87;57.94
23172;BME280;11754;42.664;23.594;2023-01-29T13:43:01;95679.66;;;6.01;58.68
23172;BME280;11754;42.664;23.594;2023-01-29T13:45:50;95672.50;;;5.73;59.07
23172;BME280;11754;42.664;23.594;2023-01-29T13:48:26;95677.97;;;5.39;59.24
23172;BME280;11754;42.664;23.594;2023-01-29T13:50:54;95694.47;;;5.09;59.90
23172;BME280;11754;42.664;23.594;2023-01-29T13:53:24;95682.31;;;4.66;61.91
23172;BME280;11754;42.664;23.594;2023-01-29T13:55:51;95692.66;;;4.56;62.29
23172;BME280;11754;42.664;23.594;2023-01-29T14:00:58;95688.75;;;4.83;62.87
23172;BME280;11754;42.664;23.594;2023-01-29T14:13:44;95680.22;;;4.05;64.15
23172;BME280;11754;42.664;23.594;2023-01-29T14:19:04;95705.84;;;4.00;65.25
23172;BME280;11754;42.664;23.594;2023-01-29T14:21:32;95707.00;;;4.07;64.88
23172;BME280;11754;42.664;23.594;2023-01-29T14:24:08;95704.97;;;4.11;65.09
23172;BME280;11754;42.664;23.594;2023-01-29T14:29:27;95712.97;;;3.76;66.24
23172;BME280;11754;42.664;23.594;2023-01-29T14:34:30;95719.25;;;3.51;67.16
23172;BME280;11754;42.664;23.594;2023-01-29T14:37:01;95717.00;;;3.46;66.82
23172;BME280;11754;42.664;23.594;2023-01-29T14:39:34;95731.91;;;3.33;67.49
23172;BME280;11754;42.664;23.594;2023-01-29T14:42:03;95725.00;;;3.21;67.99
23172;BME280;11754;42.664;23.594;2023-01-29T14:44:47;95717.16;;;3.21;67.42
23172;BME280;11754;42.664;23.594;2023-01-29T14:49:58;95715.84;;;3.04;68.14
23172;BME280;11754;42.664;23.594;2023-01-29T14:52:32;95725.19;;;3.06;68.32
23172;BME280;11754;42.664;23.594;2023-01-29T14:55:03;95715.97;;;3.13;67.92
23172;BME280;11754;42.664;23.594;2023-01-29T14:57:30;95713.34;;;3.02;67.99
23172;BME280;11754;42.664;23.594;2023-01-29T15:00:02;95717.34;;;2.95;68.95
23172;BME280;11754;42.664;23.594;2023-01-29T15:02:49;95716.91;;;3.01;69.03
23172;BME280;11754;42.664;23.594;2023-01-29T15:05:19;95714.63;;;2.97;68.81
23172;BME280;11754;42.664;23.594;2023-01-29T15:07:52;95713.53;;;2.88;68.73
23172;BME280;11754;42.664;23.594;2023-01-29T15:10:22;95727.16;;;2.92;68.73
23172;BME280;11754;42.664;23.594;2023-01-29T15:13:03;95721.72;;;2.95;69.01
23172;BME280;11754;42.664;23.594;2023-01-29T15:15:42;95722.56;;;2.95;69.08
23172;BME280;11754;42.664;23.594;2023-01-29T15:18:32;95725.94;;;2.84;69.58
23172;BME280;11754;42.664;23.594;2023-01-29T15:21:04;95723.22;;;2.75;69.80
23172;BME280;11754;42.664;23.594;2023-01-29T15:23:35;95734.31;;;2.77;69.88
23172;BME280;11754;42.664;23.594;2023-01-29T15:26:03;95730.81;;;2.78;69.83